sensor_id;sensor_type;location;lat;lon;timestamp;P1;durP1;ratioP1;P2;durP2;ratioP2
16832;SDS011;8533;48.426;10.868;2024-01-07T00:01:57;20.17;;;9.83;;
16832;SDS011;8533;48.426;10.868;2024-01-07T00:04:22;15.80;;;8.90;;
16832;SDS011;8533;48.426;10.868;2024-01-07T00:06:47;18.40;;;9.17;;
16832;SDS011;8533;48.426;10.868;2024-01-07T00:09:13;22.27;;;10.30;;
16832;SDS011;8533;48.426;10.868;2024-01-07T00:11:39;16.70;;;9.30;;
16832;SDS011;8533;48.426;10.868;2024-01-07T00:14:05;19.00;;;9.23;;
16832;SDS011;8533;48.426;10.868;2024-01-07T00:16:30;20.97;;;9.40;;
16832;SDS011;8533;48.426;10.868;2024-01-07T00:18:55;16.10;;;9.33;;
16832;SDS011;8533;48.426;10.868;2024-01-07T00:21:21;17.40;;;9.70;;
16832;SDS011;8533;48.426;10.868;2024-01-07T00:23:46;17.97;;;8.73;;
16832;SDS011;8533;48.426;10.868;2024-01-07T00:26:11;16.60;;;9.33;;
16832;SDS011;8533;48.426;10.868;2024-01-07T00:28:36;17.63;;;9.30;;
16832;SDS011;8533;48.426;10.868;2024-01-07T00:31:02;19.50;;;9.70;;
16832;SDS011;8533;48.426;10.868;2024-01-07T00:33:27;18.63;;;9.63;;
16832;SDS011;8533;48.426;10.868;2024-01-07T00:35:52;23.50;;;10.60;;
16832;SDS011;8533;48.426;10.868;2024-01-07T00:38:18;22.60;;;10.23;;
16832;SDS011;8533;48.426;10.868;2024-01-07T00:40:43;22.27;;;10.10;;
16832;SDS011;8533;48.426;10.868;2024-01-07T00:43:08;21.10;;;10.37;;
16832;SDS011;8533;48.426;10.868;2024-01-07T00:45:34;19.60;;;9.87;;
16832;SDS011;8533;48.426;10.868;2024-01-07T00:47:59;17.97;;;9.87;;
16832;SDS011;8533;48.426;10.868;2024-01-07T00:50:24;20.37;;;9.80;;
16832;SDS011;8533;48.426;10.868;2024-01-07T00:52:50;24.17;;;10.87;;
16832;SDS011;8533;48.426;10.868;2024-01-07T00:55:16;22.00;;;9.77;;
16832;SDS011;8533;48.426;10.868;2024-01-07T00:57:41;20.90;;;9.93;;
16832;SDS011;8533;48.426;10.868;2024-01-07T01:00:07;21.87;;;10.03;;
16832;SDS011;8533;48.426;10.868;2024-01-07T01:02:33;19.93;;;10.37;;
16832;SDS011;8533;48.426;10.868;2024-01-07T01:04:58;16.57;;;9.10;;
16832;SDS011;8533;48.426;10.868;2024-01-07T01:07:24;17.33;;;9.53;;
16832;SDS011;8533;48.426;10.868;2024-01-07T01:09:49;21.60;;;10.10;;
16832;SDS011;8533;48.426;10.868;2024-01-07T01:12:14;25.03;;;10.20;;
16832;SDS011;8533;48.426;10.868;2024-01-07T01:14:40;20.20;;;10.10;;
16832;SDS011;8533;48.426;10.868;2024-01-07T01:17:06;20.20;;;9.77;;
16832;SDS011;8533;48.426;10.868;2024-01-07T01:19:31;20.87;;;10.27;;
16832;SDS011;8533;48.426;10.868;2024-01-07T01:21:56;22.30;;;10.07;;
16832;SDS011;8533;48.426;10.868;2024-01-07T01:24:22;19.40;;;9.27;;
16832;SDS011;8533;48.426;10.868;2024-01-07T01:26:47;24.17;;;10.13;;
16832;SDS011;8533;48.426;10.868;2024-01-07T01:29:12;21.70;;;10.03;;
16832;SDS011;8533;48.426;10.868;2024-01-07T01:31:37;21.73;;;10.13;;
16832;SDS011;8533;48.426;10.868;2024-01-07T01:34:03;23.27;;;10.13;;
16832;SDS011;8533;48.426;10.868;2024-01-07T01:36:30;19.33;;;9.93;;
16832;SDS011;8533;48.426;10.868;2024-01-07T01:38:56;23.37;;;11.00;;
16832;SDS011;8533;48.426;10.868;2024-01-07T01:41:21;21.20;;;10.27;;
16832;SDS011;8533;48.426;10.868;2024-01-07T01:43:46;18.47;;;10.10;;
16832;SDS011;8533;48.426;10.868;2024-01-07T01:46:11;20.73;;;10.33;;
16832;SDS011;8533;48.426;10.868;2024-01-07T01:48:38;24.30;;;11.97;;
16832;SDS011;8533;48.426;10.868;2024-01-07T01:51:05;25.73;;;10.90;;
16832;SDS011;8533;48.426;10.868;2024-01-07T01:53:32;20.40;;;10.00;;
16832;SDS011;8533;48.426;10.868;2024-01-07T01:55:58;22.27;;;10.57;;
16832;SDS011;8533;48.426;10.868;2024-01-07T01:58:27;23.80;;;10.10;;
16832;SDS011;8533;48.426;10.868;2024-01-07T02:00:53;16.90;;;9.10;;
16832;SDS011;8533;48.426;10.868;2024-01-07T02:03:19;20.27;;;8.93;;
16832;SDS011;8533;48.426;10.868;2024-01-07T02:05:44;17.63;;;8.70;;
16832;SDS011;8533;48.426;10.868;2024-01-07T02:08:10;17.60;;;8.53;;
16832;SDS011;8533;48.426;10.868;2024-01-07T02:10:36;15.53;;;8.80;;
16832;SDS011;8533;48.426;10.868;2024-01-07T02:13:02;16.23;;;8.57;;
16832;SDS011;8533;48.426;10.868;2024-01-07T02:15:28;16.67;;;8.93;;
16832;SDS011;8533;48.426;10.868;2024-01-07T02:17:54;21.77;;;9.17;;
16832;SDS011;8533;48.426;10.868;2024-01-07T02:20:19;16.70;;;9.00;;
16832;SDS011;8533;48.426;10.868;2024-01-07T02:22:45;18.80;;;9.30;;
16832;SDS011;8533;48.426;10.868;2024-01-07T02:25:10;20.37;;;10.33;;
16832;SDS011;8533;48.426;10.868;2024-01-07T02:27:35;17.00;;;8.87;;
16832;SDS011;8533;48.426;10.868;2024-01-07T02:30:01;18.23;;;8.37;;
16832;SDS011;8533;48.426;10.868;2024-01-07T02:32:26;21.50;;;10.77;;
16832;SDS011;8533;48.426;10.868;2024-01-07T02:34:51;22.27;;;10.53;;
16832;SDS011;8533;48.426;10.868;2024-01-07T02:37:17;20.20;;;9.47;;
16832;SDS011;8533;48.426;10.868;2024-01-07T02:39:42;19.40;;;9.83;;
16832;SDS011;8533;48.426;10.868;2024-01-07T02:42:09;18.07;;;9.27;;
16832;SDS011;8533;48.426;10.868;2024-01-07T02:44:34;16.43;;;9.27;;
16832;SDS011;8533;48.426;10.868;2024-01-07T02:47:00;19.77;;;10.03;;
16832;SDS011;8533;48.426;10.868;2024-01-07T02:49:25;23.47;;;10.40;;
16832;SDS011;8533;48.426;10.868;2024-01-07T02:51:51;18.73;;;10.00;;
16832;SDS011;8533;48.426;10.868;2024-01-07T02:54:16;19.23;;;9.57;;
16832;SDS011;8533;48.426;10.868;2024-01-07T02:56:41;21.87;;;9.83;;
16832;SDS011;8533;48.426;10.868;2024-01-07T02:59:07;19.83;;;11.00;;
16832;SDS011;8533;48.426;10.868;2024-01-07T03:01:32;18.80;;;9.77;;
16832;SDS011;8533;48.426;10.868;2024-01-07T03:03:57;20.73;;;9.83;;
16832;SDS011;8533;48.426;10.868;2024-01-07T03:06:25;21.57;;;10.40;;
16832;SDS011;8533;48.426;10.868;2024-01-07T03:08:52;22.70;;;10.30;;
16832;SDS011;8533;48.426;10.868;2024-01-07T03:11:17;18.63;;;9.50;;
16832;SDS011;8533;48.426;10.868;2024-01-07T03:13:42;23.67;;;10.83;;
16832;SDS011;8533;48.426;10.868;2024-01-07T03:16:07;22.80;;;11.20;;
16832;SDS011;8533;48.426;10.868;2024-01-07T03:18:33;18.97;;;10.03;;
16832;SDS011;8533;48.426;10.868;2024-01-07T03:20:58;19.97;;;10.47;;
16832;SDS011;8533;48.426;10.868;2024-01-07T03:23:23;25.97;;;12.23;;
16832;SDS011;8533;48.426;10.868;2024-01-07T03:25:49;23.63;;;10.23;;
16832;SDS011;8533;48.426;10.868;2024-01-07T03:28:14;20.63;;;10.60;;
16832;SDS011;8533;48.426;10.868;2024-01-07T03:30:39;21.47;;;10.60;;
16832;SDS011;8533;48.426;10.868;2024-01-07T03:33:05;24.23;;;11.50;;
16832;SDS011;8533;48.426;10.868;2024-01-07T03:35:30;21.97;;;10.67;;
16832;SDS011;8533;48.426;10.868;2024-01-07T03:37:55;25.23;;;11.13;;
16832;SDS011;8533;48.426;10.868;2024-01-07T03:40:20;22.37;;;10.50;;
16832;SDS011;8533;48.426;10.868;2024-01-07T03:42:46;25.00;;;11.73;;
16832;SDS011;8533;48.426;10.868;2024-01-07T03:45:11;23.03;;;11.00;;
16832;SDS011;8533;48.426;10.868;2024-01-07T03:47:36;25.70;;;12.20;;
16832;SDS011;8533;48.426;10.868;2024-01-07T03:50:02;21.50;;;10.90;;
16832;SDS011;8533;48.426;10.868;2024-01-07T03:52:27;24.97;;;11.33;;
16832;SDS011;8533;48.426;10.868;2024-01-07T03:54:53;29.20;;;13.07;;
16832;SDS011;8533;48.426;10.868;2024-01-07T03:57:19;25.87;;;12.03;;
16832;SDS011;8533;48.426;10.868;2024-01-07T03:59:44;29.10;;;12.50;;
16832;SDS011;8533;48.426;10.868;2024-01-07T04:02:09;27.03;;;12.83;;
16832;SDS011;8533;48.426;10.868;2024-01-07T04:04:34;22.67;;;11.73;;
16832;SDS011;8533;48.426;10.868;2024-01-07T04:07:00;22.90;;;11.80;;
16832;SDS011;8533;48.426;10.868;2024-01-07T04:09:26;22.97;;;11.37;;
16832;SDS011;8533;48.426;10.868;2024-01-07T04:11:51;25.13;;;11.10;;
16832;SDS011;8533;48.426;10.868;2024-01-07T04:14:16;25.60;;;12.20;;
16832;SDS011;8533;48.426;10.868;2024-01-07T04:16:42;21.37;;;11.43;;
16832;SDS011;8533;48.426;10.868;2024-01-07T04:19:07;27.70;;;12.40;;
16832;SDS011;8533;48.426;10.868;2024-01-07T04:21:32;25.50;;;12.00;;
16832;SDS011;8533;48.426;10.868;2024-01-07T04:23:57;26.60;;;11.10;;
16832;SDS011;8533;48.426;10.868;2024-01-07T04:26:23;25.33;;;11.80;;
16832;SDS011;8533;48.426;10.868;2024-01-07T04:28:48;21.27;;;10.67;;
16832;SDS011;8533;48.426;10.868;2024-01-07T04:31:14;25.73;;;12.13;;
16832;SDS011;8533;48.426;10.868;2024-01-07T04:33:39;22.90;;;11.67;;
16832;SDS011;8533;48.426;10.868;2024-01-07T04:36:04;24.60;;;12.30;;
16832;SDS011;8533;48.426;10.868;2024-01-07T04:38:30;23.83;;;11.80;;
16832;SDS011;8533;48.426;10.868;2024-01-07T04:40:55;29.73;;;12.73;;
16832;SDS011;8533;48.426;10.868;2024-01-07T04:43:21;27.60;;;12.77;;
16832;SDS011;8533;48.426;10.868;2024-01-07T04:45:46;24.87;;;11.97;;
16832;SDS011;8533;48.426;10.868;2024-01-07T04:48:12;23.47;;;11.63;;
16832;SDS011;8533;48.426;10.868;2024-01-07T04:50:38;23.90;;;12.10;;
16832;SDS011;8533;48.426;10.868;2024-01-07T04:53:07;24.60;;;12.47;;
16832;SDS011;8533;48.426;10.868;2024-01-07T04:55:33;22.90;;;11.30;;
16832;SDS011;8533;48.426;10.868;2024-01-07T04:57:58;24.40;;;10.73;;
16832;SDS011;8533;48.426;10.868;2024-01-07T05:00:23;28.67;;;12.70;;
16832;SDS011;8533;48.426;10.868;2024-01-07T05:02:48;27.57;;;12.57;;
16832;SDS011;8533;48.426;10.868;2024-01-07T05:05:14;27.27;;;12.17;;
16832;SDS011;8533;48.426;10.868;2024-01-07T05:07:39;25.03;;;12.30;;
16832;SDS011;8533;48.426;10.868;2024-01-07T05:10:05;25.70;;;12.97;;
16832;SDS011;8533;48.426;10.868;2024-01-07T05:12:30;25.63;;;12.80;;
16832;SDS011;8533;48.426;10.868;2024-01-07T05:14:56;26.20;;;12.47;;
16832;SDS011;8533;48.426;10.868;2024-01-07T05:17:21;27.33;;;12.43;;
16832;SDS011;8533;48.426;10.868;2024-01-07T05:19:46;28.63;;;12.77;;
16832;SDS011;8533;48.426;10.868;2024-01-07T05:22:11;29.20;;;13.67;;
16832;SDS011;8533;48.426;10.868;2024-01-07T05:24:37;27.83;;;12.63;;
16832;SDS011;8533;48.426;10.868;2024-01-07T05:27:03;28.97;;;13.03;;
16832;SDS011;8533;48.426;10.868;2024-01-07T05:29:29;27.10;;;12.57;;
16832;SDS011;8533;48.426;10.868;2024-01-07T05:31:55;28.00;;;12.73;;
16832;SDS011;8533;48.426;10.868;2024-01-07T05:34:20;25.33;;;12.50;;
16832;SDS011;8533;48.426;10.868;2024-01-07T05:36:45;35.50;;;14.30;;
16832;SDS011;8533;48.426;10.868;2024-01-07T05:39:10;28.80;;;12.97;;
16832;SDS011;8533;48.426;10.868;2024-01-07T05:41:39;27.80;;;13.07;;
16832;SDS011;8533;48.426;10.868;2024-01-07T05:44:06;29.57;;;13.20;;
16832;SDS011;8533;48.426;10.868;2024-01-07T05:46:32;31.60;;;12.53;;
16832;SDS011;8533;48.426;10.868;2024-01-07T05:48:58;27.30;;;12.23;;
16832;SDS011;8533;48.426;10.868;2024-01-07T05:51:23;28.97;;;13.33;;
16832;SDS011;8533;48.426;10.868;2024-01-07T05:53:49;29.40;;;13.20;;
16832;SDS011;8533;48.426;10.868;2024-01-07T05:56:14;30.30;;;13.93;;
16832;SDS011;8533;48.426;10.868;2024-01-07T05:58:39;26.53;;;12.67;;
16832;SDS011;8533;48.426;10.868;2024-01-07T06:01:05;29.73;;;12.60;;
16832;SDS011;8533;48.426;10.868;2024-01-07T06:03:31;25.70;;;13.23;;
16832;SDS011;8533;48.426;10.868;2024-01-07T06:05:57;26.73;;;13.00;;
16832;SDS011;8533;48.426;10.868;2024-01-07T06:08:23;32.27;;;14.50;;
16832;SDS011;8533;48.426;10.868;2024-01-07T06:10:48;29.23;;;13.10;;
16832;SDS011;8533;48.426;10.868;2024-01-07T06:13:14;30.07;;;12.80;;
16832;SDS011;8533;48.426;10.868;2024-01-07T06:15:39;30.57;;;13.37;;
16832;SDS011;8533;48.426;10.868;2024-01-07T06:18:04;26.50;;;12.77;;
16832;SDS011;8533;48.426;10.868;2024-01-07T06:20:30;26.53;;;12.77;;
16832;SDS011;8533;48.426;10.868;2024-01-07T06:22:55;30.67;;;14.30;;
16832;SDS011;8533;48.426;10.868;2024-01-07T06:25:20;28.50;;;12.63;;
16832;SDS011;8533;48.426;10.868;2024-01-07T06:27:46;28.63;;;13.17;;
16832;SDS011;8533;48.426;10.868;2024-01-07T06:30:11;31.57;;;13.00;;
16832;SDS011;8533;48.426;10.868;2024-01-07T06:32:37;26.53;;;12.87;;
16832;SDS011;8533;48.426;10.868;2024-01-07T06:35:02;28.37;;;12.40;;
16832;SDS011;8533;48.426;10.868;2024-01-07T06:37:28;26.03;;;11.93;;
16832;SDS011;8533;48.426;10.868;2024-01-07T06:39:55;28.40;;;12.00;;
16832;SDS011;8533;48.426;10.868;2024-01-07T06:42:20;26.43;;;12.20;;
16832;SDS011;8533;48.426;10.868;2024-01-07T06:44:46;27.27;;;12.53;;
16832;SDS011;8533;48.426;10.868;2024-01-07T06:47:11;22.77;;;10.53;;
16832;SDS011;8533;48.426;10.868;2024-01-07T06:49:36;26.97;;;12.17;;
16832;SDS011;8533;48.426;10.868;2024-01-07T06:52:02;25.77;;;12.77;;
16832;SDS011;8533;48.426;10.868;2024-01-07T06:54:27;28.70;;;13.07;;
16832;SDS011;8533;48.426;10.868;2024-01-07T06:56:52;27.00;;;12.07;;
16832;SDS011;8533;48.426;10.868;2024-01-07T06:59:18;29.03;;;12.33;;
16832;SDS011;8533;48.426;10.868;2024-01-07T07:01:43;29.77;;;12.53;;
16832;SDS011;8533;48.426;10.868;2024-01-07T07:04:09;29.80;;;12.87;;
16832;SDS011;8533;48.426;10.868;2024-01-07T07:06:34;29.57;;;12.83;;
16832;SDS011;8533;48.426;10.868;2024-01-07T07:09:00;26.07;;;11.83;;
16832;SDS011;8533;48.426;10.868;2024-01-07T07:11:25;27.13;;;12.00;;
16832;SDS011;8533;48.426;10.868;2024-01-07T07:13:50;25.60;;;12.00;;
16832;SDS011;8533;48.426;10.868;2024-01-07T07:16:16;27.13;;;12.50;;
16832;SDS011;8533;48.426;10.868;2024-01-07T07:18:41;26.20;;;11.70;;
16832;SDS011;8533;48.426;10.868;2024-01-07T07:21:07;25.53;;;11.63;;
16832;SDS011;8533;48.426;10.868;2024-01-07T07:23:32;23.57;;;11.13;;
16832;SDS011;8533;48.426;10.868;2024-01-07T07:25:57;29.27;;;11.97;;
16832;SDS011;8533;48.426;10.868;2024-01-07T07:28:23;31.27;;;12.53;;
16832;SDS011;8533;48.426;10.868;2024-01-07T07:30:48;22.30;;;11.43;;
16832;SDS011;8533;48.426;10.868;2024-01-07T07:33:13;25.10;;;11.90;;
16832;SDS011;8533;48.426;10.868;2024-01-07T07:35:39;30.23;;;12.23;;
16832;SDS011;8533;48.426;10.868;2024-01-07T07:38:05;26.30;;;11.83;;
16832;SDS011;8533;48.426;10.868;2024-01-07T07:40:31;27.33;;;11.67;;
16832;SDS011;8533;48.426;10.868;2024-01-07T07:42:57;21.03;;;10.90;;
16832;SDS011;8533;48.426;10.868;2024-01-07T07:45:22;24.80;;;11.83;;
16832;SDS011;8533;48.426;10.868;2024-01-07T07:47:47;23.97;;;11.00;;
16832;SDS011;8533;48.426;10.868;2024-01-07T07:50:13;25.70;;;11.27;;
16832;SDS011;8533;48.426;10.868;2024-01-07T07:52:38;25.67;;;11.43;;
16832;SDS011;8533;48.426;10.868;2024-01-07T07:55:03;26.70;;;12.40;;
16832;SDS011;8533;48.426;10.868;2024-01-07T07:57:29;33.30;;;11.37;;
16832;SDS011;8533;48.426;10.868;2024-01-07T07:59:54;22.23;;;10.57;;
16832;SDS011;8533;48.426;10.868;2024-01-07T08:02:20;26.37;;;12.27;;
16832;SDS011;8533;48.426;10.868;2024-01-07T08:04:46;26.23;;;12.00;;
16832;SDS011;8533;48.426;10.868;2024-01-07T08:07:12;24.80;;;11.03;;
16832;SDS011;8533;48.426;10.868;2024-01-07T08:09:37;26.63;;;12.00;;
16832;SDS011;8533;48.426;10.868;2024-01-07T08:12:05;25.03;;;11.33;;
16832;SDS011;8533;48.426;10.868;2024-01-07T08:14:31;26.87;;;12.00;;
16832;SDS011;8533;48.426;10.868;2024-01-07T08:16:57;27.00;;;11.63;;
16832;SDS011;8533;48.426;10.868;2024-01-07T08:19:23;26.57;;;11.60;;
16832;SDS011;8533;48.426;10.868;2024-01-07T08:21:48;28.00;;;11.90;;
16832;SDS011;8533;48.426;10.868;2024-01-07T08:24:13;26.37;;;12.13;;
16832;SDS011;8533;48.426;10.868;2024-01-07T08:26:39;29.03;;;11.23;;
16832;SDS011;8533;48.426;10.868;2024-01-07T08:29:04;28.83;;;12.23;;
16832;SDS011;8533;48.426;10.868;2024-01-07T08:31:30;29.37;;;12.77;;
16832;SDS011;8533;48.426;10.868;2024-01-07T08:33:56;27.90;;;11.67;;
16832;SDS011;8533;48.426;10.868;2024-01-07T08:36:21;21.53;;;10.97;;
16832;SDS011;8533;48.426;10.868;2024-01-07T08:38:46;33.23;;;12.70;;
16832;SDS011;8533;48.426;10.868;2024-01-07T08:41:14;24.97;;;11.10;;
16832;SDS011;8533;48.426;10.868;2024-01-07T08:43:40;22.90;;;11.93;;
16832;SDS011;8533;48.426;10.868;2024-01-07T08:46:06;28.20;;;11.93;;
16832;SDS011;8533;48.426;10.868;2024-01-07T08:48:31;26.20;;;11.83;;
16832;SDS011;8533;48.426;10.868;2024-01-07T08:50:57;26.77;;;12.13;;
16832;SDS011;8533;48.426;10.868;2024-01-07T08:53:22;26.27;;;10.57;;
16832;SDS011;8533;48.426;10.868;2024-01-07T08:55:47;25.00;;;10.53;;
16832;SDS011;8533;48.426;10.868;2024-01-07T08:58:13;24.63;;;10.60;;
16832;SDS011;8533;48.426;10.868;2024-01-07T09:00:39;20.17;;;9.20;;
16832;SDS011;8533;48.426;10.868;2024-01-07T09:03:05;21.93;;;10.40;;
16832;SDS011;8533;48.426;10.868;2024-01-07T09:05:32;21.10;;;9.80;;
16832;SDS011;8533;48.426;10.868;2024-01-07T09:07:57;24.23;;;10.33;;
16832;SDS011;8533;48.426;10.868;2024-01-07T09:10:23;21.20;;;10.33;;
16832;SDS011;8533;48.426;10.868;2024-01-07T09:12:49;21.70;;;9.93;;
16832;SDS011;8533;48.426;10.868;2024-01-07T09:15:15;25.17;;;10.83;;
16832;SDS011;8533;48.426;10.868;2024-01-07T09:17:43;23.87;;;10.17;;
16832;SDS011;8533;48.426;10.868;2024-01-07T09:20:09;22.43;;;9.57;;
16832;SDS011;8533;48.426;10.868;2024-01-07T09:22:35;20.23;;;9.83;;
16832;SDS011;8533;48.426;10.868;2024-01-07T09:25:02;21.57;;;9.80;;
16832;SDS011;8533;48.426;10.868;2024-01-07T09:27:28;28.67;;;10.27;;
16832;SDS011;8533;48.426;10.868;2024-01-07T09:29:54;25.53;;;10.13;;
16832;SDS011;8533;48.426;10.868;2024-01-07T09:32:19;22.97;;;10.20;;
16832;SDS011;8533;48.426;10.868;2024-01-07T09:34:44;21.83;;;9.80;;
16832;SDS011;8533;48.426;10.868;2024-01-07T09:37:10;18.00;;;9.70;;
16832;SDS011;8533;48.426;10.868;2024-01-07T09:39:38;24.13;;;10.03;;
16832;SDS011;8533;48.426;10.868;2024-01-07T09:42:05;23.73;;;10.07;;
16832;SDS011;8533;48.426;10.868;2024-01-07T09:44:37;24.17;;;10.13;;
16832;SDS011;8533;48.426;10.868;2024-01-07T09:47:03;18.63;;;9.33;;
16832;SDS011;8533;48.426;10.868;2024-01-07T09:49:30;23.67;;;10.00;;
16832;SDS011;8533;48.426;10.868;2024-01-07T09:51:57;22.07;;;9.33;;
16832;SDS011;8533;48.426;10.868;2024-01-07T09:54:25;22.93;;;9.67;;
16832;SDS011;8533;48.426;10.868;2024-01-07T09:56:55;17.10;;;7.97;;
16832;SDS011;8533;48.426;10.868;2024-01-07T09:59:30;18.77;;;8.20;;
16832;SDS011;8533;48.426;10.868;2024-01-07T10:01:55;19.47;;;8.73;;
16832;SDS011;8533;48.426;10.868;2024-01-07T10:04:22;20.53;;;10.10;;
16832;SDS011;8533;48.426;10.868;2024-01-07T10:06:48;21.83;;;10.00;;
16832;SDS011;8533;48.426;10.868;2024-01-07T10:09:19;22.10;;;9.00;;
16832;SDS011;8533;48.426;10.868;2024-01-07T10:11:45;20.50;;;9.43;;
16832;SDS011;8533;48.426;10.868;2024-01-07T10:14:10;17.43;;;8.77;;
16832;SDS011;8533;48.426;10.868;2024-01-07T10:16:35;18.70;;;9.37;;
16832;SDS011;8533;48.426;10.868;2024-01-07T10:19:01;23.60;;;9.17;;
16832;SDS011;8533;48.426;10.868;2024-01-07T10:21:26;20.77;;;8.97;;
16832;SDS011;8533;48.426;10.868;2024-01-07T10:24:06;19.93;;;9.07;;
16832;SDS011;8533;48.426;10.868;2024-01-07T10:26:34;17.37;;;8.80;;
16832;SDS011;8533;48.426;10.868;2024-01-07T10:29:00;17.70;;;8.93;;
16832;SDS011;8533;48.426;10.868;2024-01-07T10:31:25;19.33;;;8.47;;
16832;SDS011;8533;48.426;10.868;2024-01-07T10:33:50;19.00;;;8.90;;
16832;SDS011;8533;48.426;10.868;2024-01-07T10:36:17;19.07;;;8.37;;
16832;SDS011;8533;48.426;10.868;2024-01-07T10:38:45;17.47;;;7.90;;
16832;SDS011;8533;48.426;10.868;2024-01-07T10:41:11;19.07;;;8.33;;
16832;SDS011;8533;48.426;10.868;2024-01-07T10:43:36;16.17;;;7.90;;
16832;SDS011;8533;48.426;10.868;2024-01-07T10:46:04;16.13;;;7.57;;
16832;SDS011;8533;48.426;10.868;2024-01-07T10:48:30;15.83;;;8.40;;
16832;SDS011;8533;48.426;10.868;2024-01-07T10:50:59;16.83;;;7.97;;
16832;SDS011;8533;48.426;10.868;2024-01-07T10:53:25;16.30;;;8.23;;
16832;SDS011;8533;48.426;10.868;2024-01-07T10:56:03;15.60;;;7.17;;
16832;SDS011;8533;48.426;10.868;2024-01-07T10:58:31;18.33;;;8.03;;
16832;SDS011;8533;48.426;10.868;2024-01-07T11:00:58;26.73;;;8.00;;
16832;SDS011;8533;48.426;10.868;2024-01-07T11:03:29;15.67;;;7.83;;
16832;SDS011;8533;48.426;10.868;2024-01-07T11:06:15;23.63;;;9.73;;
16832;SDS011;8533;48.426;10.868;2024-01-07T11:08:58;18.80;;;8.50;;
16832;SDS011;8533;48.426;10.868;2024-01-07T11:11:40;17.97;;;8.67;;
16832;SDS011;8533;48.426;10.868;2024-01-07T11:17:01;17.30;;;7.53;;
16832;SDS011;8533;48.426;10.868;2024-01-07T11:19:27;15.20;;;8.03;;
16832;SDS011;8533;48.426;10.868;2024-01-07T11:21:57;16.43;;;7.47;;
16832;SDS011;8533;48.426;10.868;2024-01-07T11:24:50;15.97;;;7.57;;
16832;SDS011;8533;48.426;10.868;2024-01-07T11:27:16;17.97;;;8.57;;
16832;SDS011;8533;48.426;10.868;2024-01-07T11:29:41;17.53;;;8.50;;
16832;SDS011;8533;48.426;10.868;2024-01-07T11:32:06;16.53;;;7.60;;
16832;SDS011;8533;48.426;10.868;2024-01-07T11:37:03;21.30;;;8.57;;
16832;SDS011;8533;48.426;10.868;2024-01-07T11:39:32;20.03;;;8.10;;
16832;SDS011;8533;48.426;10.868;2024-01-07T11:42:00;15.57;;;7.90;;
16832;SDS011;8533;48.426;10.868;2024-01-07T11:44:28;18.50;;;8.10;;
16832;SDS011;8533;48.426;10.868;2024-01-07T11:46:53;16.37;;;8.43;;
16832;SDS011;8533;48.426;10.868;2024-01-07T11:49:18;16.30;;;8.30;;
16832;SDS011;8533;48.426;10.868;2024-01-07T11:51:44;18.97;;;7.83;;
16832;SDS011;8533;48.426;10.868;2024-01-07T11:54:10;15.47;;;7.33;;
16832;SDS011;8533;48.426;10.868;2024-01-07T11:56:36;16.10;;;8.33;;
16832;SDS011;8533;48.426;10.868;2024-01-07T11:59:03;16.93;;;7.93;;
16832;SDS011;8533;48.426;10.868;2024-01-07T12:01:28;14.67;;;7.60;;
16832;SDS011;8533;48.426;10.868;2024-01-07T12:03:53;15.53;;;8.13;;
16832;SDS011;8533;48.426;10.868;2024-01-07T12:06:19;16.87;;;8.10;;
16832;SDS011;8533;48.426;10.868;2024-01-07T12:08:44;16.70;;;7.83;;
16832;SDS011;8533;48.426;10.868;2024-01-07T12:11:13;16.23;;;7.97;;
16832;SDS011;8533;48.426;10.868;2024-01-07T12:13:39;16.37;;;7.77;;
16832;SDS011;8533;48.426;10.868;2024-01-07T12:16:06;18.10;;;8.70;;
16832;SDS011;8533;48.426;10.868;2024-01-07T12:18:32;14.07;;;7.47;;
16832;SDS011;8533;48.426;10.868;2024-01-07T12:20:58;21.63;;;9.23;;
16832;SDS011;8533;48.426;10.868;2024-01-07T12:23:27;16.23;;;7.97;;
16832;SDS011;8533;48.426;10.868;2024-01-07T12:25:53;20.10;;;8.37;;
16832;SDS011;8533;48.426;10.868;2024-01-07T12:28:18;19.07;;;9.07;;
16832;SDS011;8533;48.426;10.868;2024-01-07T12:30:44;13.90;;;8.03;;
16832;SDS011;8533;48.426;10.868;2024-01-07T12:33:10;18.03;;;8.20;;
16832;SDS011;8533;48.426;10.868;2024-01-07T12:35:36;20.53;;;8.40;;
16832;SDS011;8533;48.426;10.868;2024-01-07T12:38:01;21.63;;;8.47;;
16832;SDS011;8533;48.426;10.868;2024-01-07T12:40:27;19.30;;;8.83;;
16832;SDS011;8533;48.426;10.868;2024-01-07T12:42:53;18.33;;;8.50;;
16832;SDS011;8533;48.426;10.868;2024-01-07T12:45:18;20.23;;;9.13;;
16832;SDS011;8533;48.426;10.868;2024-01-07T12:47:44;17.77;;;8.67;;
16832;SDS011;8533;48.426;10.868;2024-01-07T12:50:10;19.37;;;9.50;;
16832;SDS011;8533;48.426;10.868;2024-01-07T12:52:36;17.70;;;8.60;;
16832;SDS011;8533;48.426;10.868;2024-01-07T12:55:03;22.83;;;9.47;;
16832;SDS011;8533;48.426;10.868;2024-01-07T12:57:29;19.50;;;8.83;;
16832;SDS011;8533;48.426;10.868;2024-01-07T12:59:54;23.93;;;9.63;;
16832;SDS011;8533;48.426;10.868;2024-01-07T13:02:20;22.70;;;10.20;;
16832;SDS011;8533;48.426;10.868;2024-01-07T13:07:53;25.27;;;10.67;;
16832;SDS011;8533;48.426;10.868;2024-01-07T13:10:19;19.27;;;8.97;;
16832;SDS011;8533;48.426;10.868;2024-01-07T13:12:44;27.13;;;10.00;;
16832;SDS011;8533;48.426;10.868;2024-01-07T13:15:09;20.57;;;10.37;;
16832;SDS011;8533;48.426;10.868;2024-01-07T13:17:35;20.53;;;9.30;;
16832;SDS011;8533;48.426;10.868;2024-01-07T13:20:01;22.83;;;10.27;;
16832;SDS011;8533;48.426;10.868;2024-01-07T13:22:31;19.77;;;9.20;;
16832;SDS011;8533;48.426;10.868;2024-01-07T13:24:57;18.67;;;8.37;;
16832;SDS011;8533;48.426;10.868;2024-01-07T13:27:22;24.70;;;10.50;;
16832;SDS011;8533;48.426;10.868;2024-01-07T13:29:48;24.43;;;9.93;;
16832;SDS011;8533;48.426;10.868;2024-01-07T13:32:14;24.13;;;10.40;;
16832;SDS011;8533;48.426;10.868;2024-01-07T13:34:43;27.63;;;11.20;;
16832;SDS011;8533;48.426;10.868;2024-01-07T13:37:08;23.83;;;10.60;;
16832;SDS011;8533;48.426;10.868;2024-01-07T13:39:34;24.97;;;9.37;;
16832;SDS011;8533;48.426;10.868;2024-01-07T13:42:00;20.40;;;9.97;;
16832;SDS011;8533;48.426;10.868;2024-01-07T13:44:25;27.47;;;9.70;;
16832;SDS011;8533;48.426;10.868;2024-01-07T13:46:50;20.87;;;9.60;;
16832;SDS011;8533;48.426;10.868;2024-01-07T13:49:17;25.20;;;10.50;;
16832;SDS011;8533;48.426;10.868;2024-01-07T13:51:42;21.40;;;9.90;;
16832;SDS011;8533;48.426;10.868;2024-01-07T13:54:08;23.53;;;10.63;;
16832;SDS011;8533;48.426;10.868;2024-01-07T13:56:35;23.17;;;10.00;;
16832;SDS011;8533;48.426;10.868;2024-01-07T13:59:02;23.40;;;11.07;;
16832;SDS011;8533;48.426;10.868;2024-01-07T14:01:30;24.90;;;10.60;;
16832;SDS011;8533;48.426;10.868;2024-01-07T14:03:56;25.07;;;10.30;;
16832;SDS011;8533;48.426;10.868;2024-01-07T14:06:21;22.80;;;11.37;;
16832;SDS011;8533;48.426;10.868;2024-01-07T14:08:46;22.80;;;10.57;;
16832;SDS011;8533;48.426;10.868;2024-01-07T14:11:12;21.03;;;10.73;;
16832;SDS011;8533;48.426;10.868;2024-01-07T14:13:37;20.43;;;10.30;;
16832;SDS011;8533;48.426;10.868;2024-01-07T14:16:02;23.43;;;9.67;;
16832;SDS011;8533;48.426;10.868;2024-01-07T14:18:28;25.33;;;10.30;;
16832;SDS011;8533;48.426;10.868;2024-01-07T14:20:53;25.67;;;10.73;;
16832;SDS011;8533;48.426;10.868;2024-01-07T14:23:19;24.50;;;11.47;;
16832;SDS011;8533;48.426;10.868;2024-01-07T14:25:44;25.17;;;10.83;;
16832;SDS011;8533;48.426;10.868;2024-01-07T14:28:09;25.33;;;10.43;;